createdAt,value
2022-12-25T00:00:41.939Z,101614.72
2022-12-25T00:03:09.672Z,101610.25
2022-12-25T00:05:39.300Z,101604.22
2022-12-25T00:08:06.700Z,101609.94
2022-12-25T00:10:33.620Z,101605.03
2022-12-25T00:13:00.138Z,101613.59
2022-12-25T00:15:26.658Z,101616.38
2022-12-25T00:17:53.142Z,101610.06
2022-12-25T00:20:19.701Z,101595.81
2022-12-25T00:22:46.271Z,101605.31
2022-12-25T00:25:12.781Z,101593.66
2022-12-25T00:27:39.328Z,101595.31
2022-12-25T00:30:10.184Z,101597.69
2022-12-25T00:32:37.505Z,101604.63
2022-12-25T00:35:05.211Z,101604.88
2022-12-25T00:37:31.706Z,101601.00
2022-12-25T00:39:58.885Z,101603.63
2022-12-25T00:42:26.951Z,101595.50
2022-12-25T00:44:53.433Z,101614.84
2022-12-25T00:47:20.026Z,101602.56
2022-12-25T00:49:46.722Z,101613.97
2022-12-25T00:52:13.445Z,101616.38
2022-12-25T00:54:39.945Z,101614.59
2022-12-25T00:57:06.571Z,101620.25
2022-12-25T00:59:34.432Z,101616.03
2022-12-25T01:02:21.715Z,101617.59
2022-12-25T01:04:50.904Z,101609.66
2022-12-25T01:07:18.278Z,101611.06
2022-12-25T01:10:04.419Z,101595.56
2022-12-25T01:12:36.207Z,101606.22
2022-12-25T01:15:04.314Z,101614.09
2022-12-25T01:17:30.837Z,101616.38
2022-12-25T01:19:57.334Z,101611.03
2022-12-25T01:22:23.949Z,101618.69
2022-12-25T01:24:50.733Z,101611.03
2022-12-25T01:27:17.394Z,101618.88
2022-12-25T01:29:45.230Z,101616.56
2022-12-25T01:32:12.148Z,101609.69
2022-12-25T01:34:39.142Z,101616.22
2022-12-25T01:37:05.689Z,101607.91
2022-12-25T01:39:32.207Z,101619.13
2022-12-25T01:41:58.644Z,101620.97
2022-12-25T01:44:37.419Z,101622.41
2022-12-25T01:47:05.331Z,101617.34
2022-12-25T01:49:35.160Z,101613.91
2022-12-25T01:52:14.915Z,101621.69
2022-12-25T01:55:12.596Z,101616.50
2022-12-25T01:57:40.507Z,101614.78
2022-12-25T02:00:09.092Z,101622.91
2022-12-25T02:02:37.039Z,101615.19
2022-12-25T02:05:25.923Z,101615.13
2022-12-25T02:07:53.755Z,101611.09
2022-12-25T02:10:20.431Z,101604.31
2022-12-25T02:12:48.306Z,101637.16
2022-12-25T02:15:20.933Z,101617.31
2022-12-25T02:17:53.336Z,101619.81
2022-12-25T02:20:31.951Z,101613.81
2022-12-25T02:23:13.643Z,101611.31
2022-12-25T02:26:30.067Z,101615.59
2022-12-25T02:29:04.931Z,101616.66
2022-12-25T02:31:44.468Z,101610.78
2022-12-25T02:34:31.682Z,101597.06
2022-12-25T02:36:58.152Z,101617.25
2022-12-25T02:39:58.224Z,101612.84
2022-12-25T02:42:47.619Z,101604.19
2022-12-25T02:45:38.270Z,101606.91
2022-12-25T02:48:25.111Z,101602.69
2022-12-25T02:51:11.777Z,101597.41
2022-12-25T02:53:58.877Z,101601.00
2022-12-25T02:56:46.204Z,101583.72
2022-12-25T02:59:34.115Z,101579.28
2022-12-25T03:02:21.248Z,101586.88
2022-12-25T03:05:09.883Z,101567.09
2022-12-25T03:07:40.885Z,101575.19
2022-12-25T03:10:28.552Z,101567.47
2022-12-25T03:13:14.514Z,101558.50
2022-12-25T03:16:00.183Z,101551.38
2022-12-25T03:18:31.654Z,101555.88
2022-12-25T03:21:18.343Z,101548.16
2022-12-25T03:24:22.244Z,101556.06
2022-12-25T03:26:55.026Z,101558.66
2022-12-25T03:29:52.350Z,101560.50
2022-12-25T03:32:40.614Z,101567.16
2022-12-25T03:35:33.290Z,101585.50
2022-12-25T03:38:35.825Z,101574.00
2022-12-25T03:41:30.037Z,101565.97
2022-12-25T03:44:35.396Z,101571.97
2022-12-25T03:47:35.181Z,101574.44
2022-12-25T03:50:24.474Z,101575.22
2022-12-25T03:53:13.139Z,101557.06
2022-12-25T03:55:59.656Z,101550.28
2022-12-25T03:58:46.298Z,101538.06
2022-12-25T04:01:31.975Z,101540.38
2022-12-25T04:04:17.317Z,101536.16
2022-12-25T04:07:02.544Z,101525.53
2022-12-25T04:09:47.433Z,101528.81
2022-12-25T04:12:32.653Z,101535.88
2022-12-25T04:15:17.956Z,101530.53
2022-12-25T04:18:02.916Z,101531.31
2022-12-25T04:20:48.030Z,101538.25
2022-12-25T04:23:33.209Z,101544.88
2022-12-25T04:26:18.380Z,101551.16
2022-12-25T04:29:03.628Z,101544.16
2022-12-25T04:31:48.785Z,101554.31
2022-12-25T04:34:33.795Z,101552.38
2022-12-25T04:37:00.294Z,101551.88
2022-12-25T04:39:26.853Z,101546.03
2022-12-25T04:41:53.400Z,101539.88
2022-12-25T04:44:19.938Z,101540.47
2022-12-25T04:46:46.557Z,101536.38
2022-12-25T04:49:13.146Z,101542.03
2022-12-25T04:51:39.759Z,101524.25
2022-12-25T04:54:06.560Z,101549.09
2022-12-25T04:56:33.432Z,101541.91
2022-12-25T04:59:00.205Z,101541.13
2022-12-25T05:01:27.312Z,101547.81
2022-12-25T05:03:53.904Z,101545.19
2022-12-25T05:06:22.381Z,101544.31
2022-12-25T05:08:48.977Z,101504.06
2022-12-25T05:11:16.591Z,101514.19
2022-12-25T05:13:43.530Z,101532.69
2022-12-25T05:16:16.367Z,101513.63
2022-12-25T05:18:43.628Z,101513.41
2022-12-25T05:21:13.342Z,101527.16
2022-12-25T05:23:48.246Z,101508.75
2022-12-25T05:26:17.507Z,101514.34
2022-12-25T05:28:44.129Z,101524.97
2022-12-25T05:31:11.050Z,101521.34
2022-12-25T05:33:37.663Z,101523.66
2022-12-25T05:36:06.228Z,101520.16
2022-12-25T05:38:32.872Z,101509.47
2022-12-25T05:40:59.629Z,101502.66
2022-12-25T05:43:26.888Z,101489.94
2022-12-25T05:45:55.241Z,101515.75
2022-12-25T05:48:22.875Z,101522.81
2022-12-25T05:50:49.673Z,101505.72
2022-12-25T05:53:17.678Z,101509.84
2022-12-25T05:55:44.525Z,101505.78
2022-12-25T05:58:13.003Z,101495.56
2022-12-25T06:00:41.016Z,101504.50
2022-12-25T06:03:07.654Z,101515.81
2022-12-25T06:05:34.180Z,101513.09
2022-12-25T06:08:00.647Z,101503.47
2022-12-25T06:10:27.117Z,101492.28
2022-12-25T06:12:54.653Z,101491.03
2022-12-25T06:15:21.109Z,101490.59
2022-12-25T06:17:47.694Z,101492.28
2022-12-25T06:20:14.255Z,101474.53
2022-12-25T06:22:40.702Z,101481.31
2022-12-25T06:25:08.614Z,101471.69
2022-12-25T06:27:35.136Z,101463.47
2022-12-25T06:30:01.742Z,101480.63
2022-12-25T06:32:28.332Z,101476.38
2022-12-25T06:34:54.861Z,101469.59
2022-12-25T06:37:21.410Z,101464.31
2022-12-25T06:39:48.185Z,101445.34
2022-12-25T06:42:14.635Z,101467.88
2022-12-25T06:44:41.149Z,101465.47
2022-12-25T06:47:07.608Z,101458.91
2022-12-25T06:49:34.107Z,101471.25
2022-12-25T06:52:00.756Z,101460.28
2022-12-25T06:54:27.353Z,101469.13
2022-12-25T06:56:53.878Z,101455.78
2022-12-25T06:59:20.492Z,101457.34
2022-12-25T07:01:53.529Z,101465.66
2022-12-25T07:04:42.541Z,101464.78
2022-12-25T07:07:09.915Z,101473.47
2022-12-25T07:09:38.735Z,101460.47
2022-12-25T07:12:27.477Z,101463.03
2022-12-25T07:14:55.425Z,101464.69
2022-12-25T07:17:22.891Z,101467.44
2022-12-25T07:19:50.262Z,101458.47
2022-12-25T07:22:16.924Z,101471.69
2022-12-25T07:24:43.576Z,101473.66
2022-12-25T07:27:10.180Z,101469.25
2022-12-25T07:29:36.738Z,101472.03
2022-12-25T07:32:03.423Z,101474.44
2022-12-25T07:34:30.011Z,101470.16
2022-12-25T07:36:56.467Z,101466.66
2022-12-25T07:39:24.022Z,101456.09
2022-12-25T07:41:51.194Z,101457.63
2022-12-25T07:44:17.953Z,101459.19
2022-12-25T07:46:44.453Z,101481.31
2022-12-25T07:49:11.306Z,101495.38
2022-12-25T07:51:37.835Z,101503.25
2022-12-25T07:54:04.402Z,101506.75
2022-12-25T07:56:30.985Z,101493.47
2022-12-25T07:58:57.528Z,101480.66
2022-12-25T08:01:26.911Z,101469.16
2022-12-25T08:03:59.235Z,101477.03
2022-12-25T08:06:29.878Z,101461.19
2022-12-25T08:08:57.938Z,101471.75
2022-12-25T08:11:24.692Z,101477.22
2022-12-25T08:13:51.211Z,101469.16
2022-12-25T08:16:17.840Z,101481.25
2022-12-25T08:18:44.577Z,101490.38
2022-12-25T08:21:13.514Z,101497.25
2022-12-25T08:23:42.940Z,101501.47
2022-12-25T08:26:13.217Z,101518.25
2022-12-25T08:28:40.056Z,101510.31
2022-12-25T08:31:14.504Z,101507.66
2022-12-25T08:33:41.151Z,101500.81
2022-12-25T08:36:10.184Z,101504.88
2022-12-25T08:38:37.244Z,101504.75
2022-12-25T08:41:03.807Z,101509.13
2022-12-25T08:43:30.319Z,101504.81
2022-12-25T08:45:56.937Z,101491.59
2022-12-25T08:48:23.531Z,101490.66
2022-12-25T08:50:52.205Z,101479.69
2022-12-25T08:53:19.010Z,101496.03
2022-12-25T08:55:49.005Z,101485.53
2022-12-25T08:58:18.931Z,101493.47
2022-12-25T09:00:45.597Z,101481.19
2022-12-25T09:03:12.159Z,101484.75
2022-12-25T09:05:38.698Z,101488.00
2022-12-25T09:08:05.392Z,101496.09
2022-12-25T09:10:34.798Z,101478.63
2022-12-25T09:13:01.341Z,101480.19
2022-12-25T09:15:28.063Z,101476.53
2022-12-25T09:17:54.619Z,101488.84
2022-12-25T09:20:21.279Z,101496.63
2022-12-25T09:22:47.825Z,101505.41
2022-12-25T09:25:14.453Z,101505.34
2022-12-25T09:27:40.928Z,101506.81
2022-12-25T09:30:08.040Z,101500.97
2022-12-25T09:32:34.591Z,101501.31
2022-12-25T09:35:01.166Z,101481.72
2022-12-25T09:37:28.634Z,101508.41
2022-12-25T09:39:55.163Z,101514.81
2022-12-25T09:42:25.716Z,101505.97
2022-12-25T09:45:00.786Z,101481.19
2022-12-25T09:47:36.363Z,101488.88
2022-12-25T09:50:30.412Z,101485.28
2022-12-25T09:53:07.323Z,101503.41
2022-12-25T09:55:38.343Z,101494.84
2022-12-25T09:58:12.410Z,101492.91
2022-12-25T10:00:47.208Z,101490.03
2022-12-25T10:03:27.697Z,101494.19
2022-12-25T10:06:07.616Z,101486.81
2022-12-25T10:09:07.110Z,101471.19
2022-12-25T10:12:07.352Z,101493.88
2022-12-25T10:15:14.309Z,101489.75
2022-12-25T10:17:52.124Z,101491.38
2022-12-25T10:20:35.972Z,101490.59
2022-12-25T10:23:09.934Z,101481.81
2022-12-25T10:25:38.682Z,101477.47
2022-12-25T10:28:14.170Z,101491.47
2022-12-25T10:30:46.016Z,101478.53
2022-12-25T10:33:17.203Z,101461.75
2022-12-25T10:35:44.454Z,101478.25
2022-12-25T10:38:19.038Z,101456.41
2022-12-25T10:41:20.946Z,101439.16
2022-12-25T10:43:53.950Z,101425.47
2022-12-25T10:46:22.039Z,101434.09
2022-12-25T10:48:58.375Z,101426.19
2022-12-25T10:51:36.769Z,101426.72
2022-12-25T10:54:18.291Z,101424.72
2022-12-25T10:57:01.685Z,101396.97
2022-12-25T10:59:30.709Z,101399.22
2022-12-25T11:02:15.811Z,101395.72
2022-12-25T11:04:42.943Z,101403.25
2022-12-25T11:07:18.549Z,101403.25
2022-12-25T11:10:08.052Z,101403.56
2022-12-25T11:12:43.058Z,101393.22
2022-12-25T11:15:31.442Z,101392.28
2022-12-25T11:17:58.248Z,101391.19
2022-12-25T11:20:25.386Z,101371.78
2022-12-25T11:22:52.716Z,101378.06
2022-12-25T11:25:27.740Z,101369.59
2022-12-25T11:28:03.545Z,101373.47
2022-12-25T11:30:32.768Z,101366.56
2022-12-25T11:33:04.991Z,101356.38
2022-12-25T11:35:37.397Z,101360.41
2022-12-25T11:38:04.067Z,101345.34
2022-12-25T11:40:49.114Z,101337.72
2022-12-25T11:43:23.807Z,101326.31
2022-12-25T11:45:59.528Z,101320.84
2022-12-25T11:48:31.818Z,101327.44
2022-12-25T11:51:01.410Z,101322.09
2022-12-25T11:53:44.333Z,101319.44
2022-12-25T11:56:31.063Z,101319.59
2022-12-25T11:59:06.542Z,101326.44
2022-12-25T12:01:44.663Z,101331.66
2022-12-25T12:04:27.466Z,101323.41
2022-12-25T12:07:01.737Z,101325.78
2022-12-25T12:10:05.684Z,101328.44
2022-12-25T12:12:48.718Z,101321.78
2022-12-25T12:15:44.337Z,101319.13
2022-12-25T12:18:29.224Z,101312.91
2022-12-25T12:21:01.941Z,101312.91
2022-12-25T12:23:31.381Z,101295.41
2022-12-25T12:25:58.076Z,101289.97
2022-12-25T12:28:29.044Z,101284.75
2022-12-25T12:31:07.706Z,101289.34
2022-12-25T12:33:43.894Z,101284.16
2022-12-25T12:36:14.776Z,101284.91
2022-12-25T12:38:43.577Z,101292.78
2022-12-25T12:41:12.454Z,101292.00
2022-12-25T12:43:54.159Z,101281.50
2022-12-25T12:46:30.194Z,101278.09
2022-12-25T12:49:20.791Z,101282.19
2022-12-25T12:51:47.573Z,101278.16
2022-12-25T12:54:26.144Z,101282.59
2022-12-25T12:57:00.788Z,101285.25
2022-12-25T12:59:33.373Z,101270.63
2022-12-25T13:02:21.533Z,101276.53
2022-12-25T13:04:53.650Z,101272.28
2022-12-25T13:07:28.450Z,101252.22
2022-12-25T13:10:20.804Z,101253.16
2022-12-25T13:12:53.361Z,101251.97
2022-12-25T13:15:22.979Z,101241.81
2022-12-25T13:17:50.174Z,101234.81
2022-12-25T13:20:39.802Z,101239.94
2022-12-25T13:23:14.121Z,101214.44
2022-12-25T13:25:40.728Z,101201.31
2022-12-25T13:28:31.608Z,101201.00
2022-12-25T13:31:02.270Z,101208.16
2022-12-25T13:33:29.491Z,101206.28
2022-12-25T13:35:56.447Z,101198.69
2022-12-25T13:38:25.783Z,101204.66
2022-12-25T13:41:14.042Z,101207.13
2022-12-25T13:43:42.684Z,101210.25
2022-12-25T13:46:13.800Z,101215.06
2022-12-25T13:48:41.410Z,101232.00
2022-12-25T13:51:16.959Z,101236.44
2022-12-25T13:53:44.237Z,101227.28
2022-12-25T13:56:15.717Z,101235.84
2022-12-25T13:58:43.263Z,101234.28
2022-12-25T14:01:11.838Z,101231.88
2022-12-25T14:03:47.103Z,101220.22
2022-12-25T14:06:25.777Z,101226.81
2022-12-25T14:08:54.939Z,101210.25
2022-12-25T14:11:23.949Z,101216.31
2022-12-25T14:13:56.543Z,101215.72
2022-12-25T14:16:24.977Z,101219.13
2022-12-25T14:18:56.524Z,101220.06
2022-12-25T14:21:34.005Z,101222.47
2022-12-25T14:24:00.848Z,101217.19
2022-12-25T14:26:32.970Z,101210.34
2022-12-25T14:29:05.559Z,101224.94
2022-12-25T14:31:33.168Z,101214.78
2022-12-25T14:34:06.030Z,101217.59
2022-12-25T14:36:33.855Z,101215.94
2022-12-25T14:39:03.916Z,101222.69
2022-12-25T14:41:39.510Z,101218.75
2022-12-25T14:44:25.490Z,101216.03
2022-12-25T14:47:23.800Z,101202.81
2022-12-25T14:49:50.963Z,101209.66
2022-12-25T14:52:37.379Z,101204.22
2022-12-25T14:55:07.280Z,101190.56
2022-12-25T14:57:38.669Z,101198.47
2022-12-25T15:00:22.364Z,101189.00
2022-12-25T15:02:54.711Z,101202.28
2022-12-25T15:05:26.014Z,101204.84
2022-12-25T15:08:08.881Z,101201.88
2022-12-25T15:13:22.560Z,101209.38
2022-12-25T15:15:53.630Z,101217.38
2022-12-25T15:18:22.556Z,101213.38
2022-12-25T15:20:53.532Z,101218.53
2022-12-25T15:23:21.172Z,101207.97
2022-12-25T15:25:48.565Z,101202.69
2022-12-25T15:28:15.108Z,101215.91
2022-12-25T15:30:41.862Z,101199.97
2022-12-25T15:33:16.160Z,101214.72
2022-12-25T15:35:45.741Z,101215.19
2022-12-25T15:38:12.843Z,101224.72
2022-12-25T15:40:40.622Z,101222.25
2022-12-25T15:43:14.543Z,101206.47
2022-12-25T15:45:54.192Z,101203.69
2022-12-25T15:48:20.835Z,101206.31
2022-12-25T15:50:47.682Z,101201.88
2022-12-25T15:53:14.226Z,101203.69
2022-12-25T15:55:41.244Z,101195.84
2022-12-25T15:58:12.759Z,101190.88
2022-12-25T16:00:39.405Z,101194.97
2022-12-25T16:03:06.076Z,101203.84
2022-12-25T16:05:32.673Z,101203.06
2022-12-25T16:07:59.206Z,101199.56
2022-12-25T16:10:25.910Z,101195.38
2022-12-25T16:12:52.666Z,101197.13
2022-12-25T16:15:19.226Z,101188.50
2022-12-25T16:17:45.792Z,101197.22
2022-12-25T16:20:15.634Z,101189.22
2022-12-25T16:22:42.463Z,101191.84
2022-12-25T16:25:18.591Z,101186.66
2022-12-25T16:27:45.934Z,101185.78
2022-12-25T16:30:15.394Z,101179.66
2022-12-25T16:32:42.776Z,101177.19
2022-12-25T16:37:57.096Z,101147.22
2022-12-25T16:40:23.801Z,101131.09
2022-12-25T16:42:50.605Z,101156.63
2022-12-25T16:45:17.586Z,101159.94
2022-12-25T16:47:44.407Z,101148.84
2022-12-25T16:50:11.150Z,101160.03
2022-12-25T16:52:38.528Z,101148.94
2022-12-25T16:55:10.139Z,101142.19
2022-12-25T16:57:37.296Z,101116.56
2022-12-25T17:00:04.957Z,101164.69
2022-12-25T17:02:32.432Z,101137.13
2022-12-25T17:05:00.679Z,101154.91
2022-12-25T17:07:30.563Z,101150.41
2022-12-25T17:09:57.379Z,101154.22
2022-12-25T17:12:29.360Z,101138.16
2022-12-25T17:14:56.018Z,101153.44
2022-12-25T17:17:25.968Z,101155.31
2022-12-25T17:19:55.666Z,101139.16
2022-12-25T17:22:22.380Z,101164.13
2022-12-25T17:24:51.890Z,101159.19
2022-12-25T17:27:24.293Z,101170.72
2022-12-25T17:29:55.221Z,101151.34
2022-12-25T17:32:21.844Z,101162.28
2022-12-25T17:34:48.517Z,101154.34
2022-12-25T17:37:15.103Z,101145.66
2022-12-25T17:39:41.872Z,101143.88
2022-12-25T17:42:09.420Z,101139.34
2022-12-25T17:44:36.141Z,101141.06
2022-12-25T17:47:02.958Z,101149.06
2022-12-25T17:49:36.612Z,101151.38
2022-12-25T17:52:03.835Z,101163.28
2022-12-25T17:54:39.155Z,101162.88
2022-12-25T17:57:06.004Z,101153.56
2022-12-25T17:59:32.701Z,101151.53
2022-12-25T18:01:59.410Z,101153.34
2022-12-25T18:04:26.221Z,101154.28
2022-12-25T18:06:52.675Z,101142.94
2022-12-25T18:09:19.912Z,101145.50
2022-12-25T18:11:46.750Z,101134.06
2022-12-25T18:14:15.827Z,101133.31
2022-12-25T18:16:44.538Z,101128.94
2022-12-25T18:19:12.670Z,101134.94
2022-12-25T18:21:39.471Z,101135.88
2022-12-25T18:24:14.827Z,101119.31
2022-12-25T18:26:41.760Z,101125.38
2022-12-25T18:29:08.477Z,101121.97
2022-12-25T18:31:35.194Z,101104.91
2022-12-25T18:34:04.586Z,101115.22
2022-12-25T18:36:34.205Z,101125.88
2022-12-25T18:39:04.053Z,101123.91
2022-12-25T18:41:30.873Z,101112.38
2022-12-25T18:44:00.113Z,101139.16
2022-12-25T18:46:27.606Z,101148.69
2022-12-25T18:48:56.137Z,101160.03
2022-12-25T18:51:36.554Z,101151.78
2022-12-25T18:54:03.239Z,101168.25
2022-12-25T18:56:29.911Z,101168.41
2022-12-25T18:58:59.731Z,101164.13
2022-12-25T19:01:26.748Z,101137.50
2022-12-25T19:03:58.663Z,101149.69
2022-12-25T19:06:33.110Z,101161.56
2022-12-25T19:08:59.741Z,101154.97
2022-12-25T19:11:26.347Z,101157.38
2022-12-25T19:13:53.075Z,101144.03
2022-12-25T19:16:19.706Z,101135.00
2022-12-25T19:18:46.222Z,101137.13
2022-12-25T19:21:12.798Z,101143.16
2022-12-25T19:23:39.614Z,101153.03
2022-12-25T19:26:07.704Z,101158.47
2022-12-25T19:28:34.994Z,101159.25
2022-12-25T19:31:02.107Z,101136.09
2022-12-25T19:33:31.732Z,101145.81
2022-12-25T19:36:02.274Z,101143.25
2022-12-25T19:38:29.291Z,101146.66
2022-12-25T19:41:01.949Z,101147.53
2022-12-25T19:43:36.867Z,101136.97
2022-12-25T19:46:04.544Z,101137.81
2022-12-25T19:48:32.581Z,101157.84
2022-12-25T19:51:02.297Z,101153.13
2022-12-25T19:53:30.378Z,101166.38
2022-12-25T19:56:01.619Z,101164.22
2022-12-25T19:58:28.134Z,101167.63
2022-12-25T20:01:02.978Z,101173.16
2022-12-25T20:03:29.974Z,101165.75
2022-12-25T20:05:57.057Z,101180.91
2022-12-25T20:08:24.130Z,101168.66
2022-12-25T20:10:53.657Z,101172.38
2022-12-25T20:13:20.382Z,101168.09
2022-12-25T20:15:47.030Z,101162.81
2022-12-25T20:18:13.792Z,101174.78
2022-12-25T20:20:40.786Z,101171.53
2022-12-25T20:23:07.411Z,101166.00
2022-12-25T20:25:33.896Z,101170.88
2022-12-25T20:28:00.465Z,101170.28
2022-12-25T20:30:26.985Z,101159.94
2022-12-25T20:32:53.693Z,101159.94
2022-12-25T20:35:20.150Z,101172.22
2022-12-25T20:37:46.753Z,101160.25
2022-12-25T20:40:13.528Z,101167.88
2022-12-25T20:42:40.031Z,101161.81
2022-12-25T20:45:07.561Z,101168.56
2022-12-25T20:47:34.644Z,101158.78
2022-12-25T20:50:01.312Z,101163.28
2022-12-25T20:52:27.834Z,101166.84
2022-12-25T20:54:54.299Z,101174.63
2022-12-25T20:57:23.108Z,101168.41
2022-12-25T20:59:49.742Z,101166.78
2022-12-25T21:02:35.379Z,101168.66
2022-12-25T21:05:07.887Z,101170.59
2022-12-25T21:07:34.416Z,101161.91
2022-12-25T21:10:00.944Z,101169.75
2022-12-25T21:12:27.466Z,101176.56
2022-12-25T21:14:53.983Z,101167.78
2022-12-25T21:17:20.780Z,101175.72
2022-12-25T21:19:47.374Z,101176.66
2022-12-25T21:22:14.145Z,101177.50
2022-12-25T21:24:40.594Z,101184.31
2022-12-25T21:27:07.130Z,101184.56
2022-12-25T21:29:33.712Z,101190.63
2022-12-25T21:32:18.876Z,101194.19
2022-12-25T21:34:45.378Z,101184.97
2022-12-25T21:37:11.890Z,101189.31
2022-12-25T21:39:38.371Z,101191.78
2022-12-25T21:42:05.380Z,101191.25
2022-12-25T21:44:31.896Z,101189.59
2022-12-25T21:46:58.397Z,101194.50
2022-12-25T21:49:43.565Z,101188.53
2022-12-25T21:52:10.512Z,101183.25
2022-12-25T21:54:37.471Z,101189.16
2022-12-25T21:57:03.981Z,101199.09
2022-12-25T21:59:30.493Z,101206.38
2022-12-25T22:01:57.123Z,101198.63
2022-12-25T22:04:26.277Z,101203.81
2022-12-25T22:07:11.412Z,101209.25
2022-12-25T22:09:38.150Z,101192.97
2022-12-25T22:12:27.272Z,101214.16
2022-12-25T22:15:02.737Z,101199.09
2022-12-25T22:17:50.069Z,101206.38
2022-12-25T22:20:28.129Z,101201.25
2022-12-25T22:22:54.881Z,101206.53
2022-12-25T22:25:21.516Z,101181.06
2022-12-25T22:27:48.478Z,101188.13
2022-12-25T22:30:20.515Z,101174.47
2022-12-25T22:32:48.119Z,101182.00
2022-12-25T22:35:15.884Z,101181.47
2022-12-25T22:37:43.183Z,101173.63
2022-12-25T22:40:12.481Z,101176.66
2022-12-25T22:42:39.035Z,101189.22
2022-12-25T22:45:06.290Z,101182.22
2022-12-25T22:47:33.022Z,101177.88
2022-12-25T22:49:59.583Z,101170.69
2022-12-25T22:52:26.378Z,101175.97
2022-12-25T22:54:52.960Z,101174.16
2022-12-25T22:57:19.512Z,101167.88
2022-12-25T22:59:46.020Z,101159.94
2022-12-25T23:02:12.647Z,101158.25
2022-12-25T23:04:39.180Z,101157.38
2022-12-25T23:07:05.935Z,101156.66
2022-12-25T23:09:32.360Z,101168.81
2022-12-25T23:11:59.685Z,101182.94
2022-12-25T23:14:39.310Z,101181.84
2022-12-25T23:17:32.137Z,101166.34
2022-12-25T23:20:19.358Z,101161.09
2022-12-25T23:23:05.210Z,101167.63
2022-12-25T23:25:52.585Z,101159.00
2022-12-25T23:28:39.089Z,101154.03
2022-12-25T23:31:06.619Z,101156.22
2022-12-25T23:33:33.151Z,101149.56
2022-12-25T23:35:59.652Z,101146.97
2022-12-25T23:38:26.176Z,101155.19
2022-12-25T23:40:52.717Z,101153.66
2022-12-25T23:43:19.428Z,101168.50
2022-12-25T23:45:45.913Z,101172.91
2022-12-25T23:48:12.403Z,101172.06
2022-12-25T23:50:38.938Z,101175.56
2022-12-25T23:53:05.352Z,101168.56
2022-12-25T23:55:33.246Z,101175.47
2022-12-25T23:57:59.740Z,101184.97
